Perryopolis, PA (15473)

7:59 AM EDT on September 17, 2014 (GMT -0400)
Belle Vernon | Change Station
CLOSE
Current Station
Personal Weather Station
Location: Belle Vernon, PA
Elevation: 996 ft
Nearby Weather Stations

Elev 996 ft 40.12 °N, 79.85 °W | Updated 0 second ago

Mostly Cloudy
Mostly Cloudy
50.7 °F
Feels Like 50.7 °F
N
0.0
Wind Variable Wind from WNW
Gusts 0.0 mph

Today
High -- | Low -- °F
--% Chance of Precip.
Yesterday
High -- | Low -- °F
Precip. -- in
7:01 AM 7:24 PM
Last Quarter, 36% visible
Pressure 30.09 in
Visibility 0.2 miles
Clouds
Dew Point 47 °F
Humidity 87%
Rainfall 0.00 in
Snow Depth Not available.
UV Not available.
Pollen 3.60 out of 12
Air Quality Not available.
Flu Activity Not available.
METAR KAGC 171153Z 00000KT 1/4SM R28/4000VP6000FT FG VV002 09/08 A3007 RMK AO2 SLP187 T00890078 10122 20089 53001

More Conditions Fewer Conditions

Pressure 30.09 in
Visibility 0.2 miles
Clouds
Dew Point 47 °F
Humidity 87%
Rainfall 0.00 in
Snow Depth Not available.
UV Not available.
Pollen 3.60 out of 12
Air Quality Not available.
Flu Activity Not available.
METAR KAGC 171153Z 00000KT 1/4SM R28/4000VP6000FT FG VV002 09/08 A3007 RMK AO2 SLP187 T00890078 10122 20089 53001

More Conditions Fewer Conditions

10-Day Weather Forecast

Almanac

Astronomy

Sep. 17, 2014 Rise Set
Actual Time 7:01 AM EDT 7:24 PM EDT
Civil Twilight 6:34 AM EDT 7:51 PM EDT
Nautical Twilight 6:02 AM EDT 8:23 PM EDT
Astronomical Twilight 5:30 AM EDT 8:56 PM EDT
Moon 1:00 AM EDT 3:33 PM EDT
Length of Visible Light 13h 16m
Length of Day
12h 22m
Tomorrow will be 2m 37s shorter.
Last Quarter, 36% of the Moon is Illuminated
Today
Last Quarter
Sep 24
New
Oct 1
First Quarter
Oct 8
Full
Oct 15
Last Quarter

Today's Extremes

State Highs State Lows

Community

WunderPhotos

Upload Photos

1,754,002 photos uploaded!

Nearby

Snow Depth

Station Depth Elevation
No new snow has been reported.

Earthquake Activity

City Distance Mag. Time & Date
No recent earthquake activity has been reported nearby.
Minimum magnitude displayed is 2.5.

Coastal Water Temperatures

Place Temperature
No Stations Reporting

Nearby Weather Stations